createdAt,value
2022-11-24T00:01:04.502Z,14.90
2022-11-24T00:03:34.286Z,15.07
2022-11-24T00:06:07.301Z,11.10
2022-11-24T00:08:35.516Z,15.27
2022-11-24T00:11:07.279Z,18.63
2022-11-24T00:13:35.765Z,18.73
2022-11-24T00:16:07.758Z,18.23
2022-11-24T00:18:37.214Z,19.10
2022-11-24T00:21:05.357Z,17.93
2022-11-24T00:23:33.495Z,20.73
2022-11-24T00:26:04.986Z,15.07
2022-11-24T00:28:33.662Z,22.57
2022-11-24T00:31:01.913Z,17.23
2022-11-24T00:33:30.124Z,17.60
2022-11-24T00:36:00.237Z,14.43
2022-11-24T00:38:28.710Z,13.07
2022-11-24T00:40:56.850Z,14.47
2022-11-24T00:43:25.022Z,15.83
2022-11-24T00:45:53.242Z,14.40
2022-11-24T00:48:21.396Z,15.00
2022-11-24T00:50:56.835Z,14.93
2022-11-24T00:53:26.346Z,17.43
2022-11-24T00:55:54.931Z,16.77
2022-11-24T00:58:23.258Z,18.70
2022-11-24T01:00:51.758Z,14.83
2022-11-24T01:03:20.361Z,11.10
2022-11-24T01:05:48.566Z,11.97
2022-11-24T01:08:17.129Z,9.67
2022-11-24T01:10:46.638Z,12.57
2022-11-24T01:13:14.765Z,13.83
2022-11-24T01:15:42.934Z,12.07
2022-11-24T01:18:11.533Z,11.03
2022-11-24T01:20:39.692Z,15.63
2022-11-24T01:23:08.133Z,10.40
2022-11-24T01:25:36.265Z,13.57
2022-11-24T01:28:05.833Z,13.97
2022-11-24T01:30:34.043Z,9.77
2022-11-24T01:33:02.173Z,11.23
2022-11-24T01:35:30.312Z,11.50
2022-11-24T01:37:58.487Z,11.57
2022-11-24T01:40:26.614Z,13.23
2022-11-24T01:42:54.765Z,14.27
2022-11-24T01:45:32.897Z,13.20
2022-11-24T01:48:02.477Z,12.70
2022-11-24T01:50:30.723Z,14.30
2022-11-24T01:52:58.848Z,10.83
2022-11-24T01:55:29.425Z,15.50
2022-11-24T01:57:59.248Z,13.37
2022-11-24T02:00:27.438Z,12.07
2022-11-24T02:02:56.955Z,14.23
2022-11-24T02:05:27.573Z,15.43
2022-11-24T02:07:57.463Z,8.67
2022-11-24T02:10:25.677Z,12.20
2022-11-24T02:12:55.230Z,10.97
2022-11-24T02:15:24.294Z,9.87
2022-11-24T02:17:52.412Z,13.07
2022-11-24T02:20:22.070Z,9.20
2022-11-24T02:22:55.727Z,12.57
2022-11-24T02:25:32.767Z,9.50
2022-11-24T02:28:04.147Z,9.23
2022-11-24T02:30:32.304Z,8.23
2022-11-24T02:33:00.710Z,4.50
2022-11-24T02:35:29.141Z,7.67
2022-11-24T02:37:57.263Z,8.20
2022-11-24T02:40:27.178Z,3.77
2022-11-24T02:42:56.608Z,4.30
2022-11-24T02:45:26.286Z,6.43
2022-11-24T02:47:54.423Z,5.07
2022-11-24T02:50:22.578Z,4.17
2022-11-24T02:52:50.723Z,7.33
2022-11-24T02:55:20.135Z,4.17
2022-11-24T02:57:48.650Z,2.47
2022-11-24T03:00:17.249Z,4.83
2022-11-24T03:02:46.756Z,4.00
2022-11-24T03:05:15.195Z,4.47
2022-11-24T03:07:43.402Z,6.20
2022-11-24T03:10:11.559Z,4.97
2022-11-24T03:12:39.688Z,3.80
2022-11-24T03:15:08.260Z,5.73
2022-11-24T03:17:36.825Z,5.50
2022-11-24T03:20:06.647Z,6.60
2022-11-24T03:22:34.789Z,6.70
2022-11-24T03:25:02.910Z,6.83
2022-11-24T03:27:31.815Z,5.90
2022-11-24T03:29:59.938Z,7.10
2022-11-24T03:32:28.034Z,9.40
2022-11-24T03:34:56.814Z,7.67
2022-11-24T03:37:26.255Z,9.77
2022-11-24T03:39:54.415Z,7.43
2022-11-24T03:42:22.562Z,8.87
2022-11-24T03:44:50.691Z,7.80
2022-11-24T03:47:18.789Z,6.33
2022-11-24T03:49:47.420Z,13.03
2022-11-24T03:52:15.533Z,7.50
2022-11-24T03:54:45.278Z,6.47
2022-11-24T03:57:13.412Z,9.50
2022-11-24T03:59:42.038Z,7.53
2022-11-24T04:02:10.217Z,10.50
2022-11-24T04:04:38.365Z,5.43
2022-11-24T04:07:06.572Z,2.07
2022-11-24T04:09:34.732Z,2.47
2022-11-24T04:12:21.790Z,2.10
2022-11-24T04:14:49.885Z,3.10
2022-11-24T04:17:17.988Z,2.53
2022-11-24T04:19:46.092Z,1.93
2022-11-24T04:22:14.238Z,3.50
2022-11-24T04:24:42.607Z,3.20
2022-11-24T04:27:12.110Z,5.27
2022-11-24T04:29:40.252Z,4.37
2022-11-24T04:32:08.833Z,7.20
2022-11-24T04:34:37.283Z,5.00
2022-11-24T04:37:05.563Z,3.93
2022-11-24T04:39:33.763Z,1.33
2022-11-24T04:42:01.940Z,4.20
2022-11-24T04:44:31.403Z,4.53
2022-11-24T04:46:59.617Z,3.70
2022-11-24T04:49:28.010Z,3.93
2022-11-24T04:51:56.152Z,4.47
2022-11-24T04:54:24.286Z,2.37
2022-11-24T04:56:53.098Z,2.33
2022-11-24T04:59:21.646Z,0.80
2022-11-24T05:01:51.262Z,3.67
2022-11-24T05:04:21.340Z,2.23
2022-11-24T05:06:49.526Z,3.33
2022-11-24T05:09:18.691Z,2.90
2022-11-24T05:11:46.832Z,4.13
2022-11-24T05:14:14.999Z,3.00
2022-11-24T05:16:43.217Z,1.80
2022-11-24T05:19:13.120Z,3.07
2022-11-24T05:21:41.288Z,3.37
2022-11-24T05:24:09.716Z,4.10
2022-11-24T05:26:37.933Z,4.23
2022-11-24T05:29:06.079Z,3.53
2022-11-24T05:31:34.199Z,5.07
2022-11-24T05:34:02.539Z,7.43
2022-11-24T05:36:49.447Z,6.73
2022-11-24T05:39:17.632Z,4.00
2022-11-24T05:41:45.743Z,2.10
2022-11-24T05:44:13.879Z,4.27
2022-11-24T05:46:42.083Z,5.50
2022-11-24T05:49:10.418Z,3.80
2022-11-24T05:51:39.915Z,5.57
2022-11-24T05:54:08.016Z,5.20
2022-11-24T05:56:36.214Z,5.83
2022-11-24T05:59:09.577Z,6.70
2022-11-24T06:01:38.377Z,5.83
2022-11-24T06:04:06.681Z,4.43
2022-11-24T06:06:34.845Z,4.07
2022-11-24T06:09:04.347Z,5.10
2022-11-24T06:11:32.482Z,4.33
2022-11-24T06:14:00.698Z,3.97
2022-11-24T06:16:29.017Z,4.70
2022-11-24T06:18:57.241Z,3.87
2022-11-24T06:21:25.485Z,4.30
2022-11-24T06:23:53.587Z,6.23
2022-11-24T06:26:23.102Z,4.57
2022-11-24T06:28:51.236Z,5.60
2022-11-24T06:31:19.422Z,4.63
2022-11-24T06:33:47.737Z,5.77
2022-11-24T06:36:15.985Z,4.23
2022-11-24T06:38:44.098Z,6.43
2022-11-24T06:41:13.769Z,7.07
2022-11-24T06:43:43.282Z,5.73
2022-11-24T06:46:11.683Z,5.97
2022-11-24T06:48:40.178Z,6.00
2022-11-24T06:51:09.000Z,6.40
2022-11-24T06:53:38.317Z,5.73
2022-11-24T06:56:12.120Z,5.97
2022-11-24T06:58:45.546Z,5.53
2022-11-24T07:01:15.957Z,6.30
2022-11-24T07:03:44.179Z,7.90
2022-11-24T07:06:12.355Z,7.07
2022-11-24T07:08:40.525Z,6.53
2022-11-24T07:11:08.984Z,7.93
2022-11-24T07:13:37.187Z,10.73
2022-11-24T07:16:13.414Z,7.57
2022-11-24T07:18:41.546Z,8.87
2022-11-24T07:21:09.934Z,7.17
2022-11-24T07:23:38.110Z,9.63
2022-11-24T07:26:07.326Z,10.20
2022-11-24T07:28:36.612Z,5.03
2022-11-24T07:31:07.027Z,8.53
2022-11-24T07:33:36.636Z,9.30
2022-11-24T07:36:05.702Z,7.33
2022-11-24T07:38:34.446Z,16.30
2022-11-24T07:41:02.983Z,7.77
2022-11-24T07:43:32.729Z,7.77
2022-11-24T07:46:01.279Z,11.60
2022-11-24T07:48:29.674Z,13.17
2022-11-24T07:51:02.200Z,11.57
2022-11-24T07:53:30.587Z,11.27
2022-11-24T07:56:00.547Z,12.70
2022-11-24T07:58:32.629Z,11.00
2022-11-24T08:01:01.733Z,8.80
2022-11-24T08:03:30.564Z,11.03
2022-11-24T08:08:48.831Z,10.57
2022-11-24T08:11:18.563Z,11.27
2022-11-24T08:13:46.941Z,7.70
2022-11-24T08:16:16.241Z,11.57
2022-11-24T08:18:44.700Z,14.20
2022-11-24T08:21:13.767Z,10.33
2022-11-24T08:23:43.027Z,8.63
2022-11-24T08:26:15.816Z,12.37
2022-11-24T08:28:44.173Z,5.53
2022-11-24T08:31:13.987Z,9.90
2022-11-24T08:33:42.417Z,12.83
2022-11-24T08:36:11.397Z,12.03
2022-11-24T08:38:39.948Z,10.80
2022-11-24T08:41:09.023Z,14.87
2022-11-24T08:43:38.807Z,11.27
2022-11-24T08:46:09.456Z,10.70
2022-11-24T08:48:38.237Z,12.10
2022-11-24T08:51:08.423Z,12.10
2022-11-24T08:53:36.607Z,15.90
2022-11-24T08:56:05.233Z,13.20
2022-11-24T08:58:33.894Z,7.67
2022-11-24T09:01:07.546Z,11.90
2022-11-24T09:03:35.788Z,13.50
2022-11-24T09:06:04.108Z,15.70
2022-11-24T09:08:32.436Z,12.37
2022-11-24T09:11:01.486Z,13.93
2022-11-24T09:13:29.644Z,18.37
2022-11-24T09:15:57.843Z,14.47
2022-11-24T09:18:30.303Z,13.27
2022-11-24T09:21:07.156Z,19.63
2022-11-24T09:23:35.838Z,11.17
2022-11-24T09:26:07.502Z,14.20
2022-11-24T09:28:35.744Z,11.27
2022-11-24T09:31:04.302Z,13.53
2022-11-24T09:33:33.970Z,14.73
2022-11-24T09:36:02.515Z,11.03
2022-11-24T09:38:30.710Z,10.97
2022-11-24T09:41:09.686Z,16.00
2022-11-24T09:43:40.663Z,9.63
2022-11-24T09:46:13.987Z,12.30
2022-11-24T09:48:45.889Z,10.53
2022-11-24T09:51:14.957Z,12.77
2022-11-24T09:53:45.682Z,12.83
2022-11-24T09:56:18.013Z,11.67
2022-11-24T09:58:48.249Z,15.90
2022-11-24T10:01:18.023Z,14.20
2022-11-24T10:03:49.093Z,16.87
2022-11-24T10:06:21.300Z,11.77
2022-11-24T10:09:02.914Z,13.03
2022-11-24T10:11:36.588Z,8.83
2022-11-24T10:14:22.942Z,13.03
2022-11-24T10:16:54.591Z,17.77
2022-11-24T10:19:36.979Z,19.83
2022-11-24T10:22:14.064Z,13.40
2022-11-24T10:24:55.593Z,14.40
2022-11-24T10:27:26.266Z,18.77
2022-11-24T10:29:55.092Z,14.70
2022-11-24T10:32:25.913Z,12.33
2022-11-24T10:34:56.265Z,13.30
2022-11-24T10:37:30.214Z,17.83
2022-11-24T10:40:01.639Z,12.70
2022-11-24T10:42:31.421Z,16.60
2022-11-24T10:45:03.431Z,11.43
2022-11-24T10:47:32.406Z,12.17
2022-11-24T10:50:04.158Z,12.20
2022-11-24T10:52:36.347Z,15.97
2022-11-24T10:55:06.005Z,21.63
2022-11-24T10:57:34.966Z,15.57
2022-11-24T11:00:04.225Z,17.37
2022-11-24T11:02:34.116Z,15.67
2022-11-24T11:05:23.593Z,13.80
2022-11-24T11:07:51.799Z,13.77
2022-11-24T11:10:21.579Z,14.67
2022-11-24T11:12:49.740Z,19.83
2022-11-24T11:15:23.206Z,17.33
2022-11-24T11:17:54.508Z,10.90
2022-11-24T11:20:28.672Z,13.13
2022-11-24T11:22:58.186Z,11.37
2022-11-24T11:25:28.336Z,10.23
2022-11-24T11:28:27.849Z,17.23
2022-11-24T11:31:19.787Z,14.33
2022-11-24T11:34:03.797Z,10.53
2022-11-24T11:36:34.538Z,13.13
2022-11-24T11:39:04.513Z,19.80
2022-11-24T11:41:35.114Z,11.83
2022-11-24T11:44:11.811Z,18.33
2022-11-24T11:46:39.689Z,15.40
2022-11-24T11:49:12.295Z,12.33
2022-11-24T11:51:50.213Z,14.13
2022-11-24T11:54:28.018Z,14.23
2022-11-24T11:57:07.552Z,17.50
2022-11-24T12:00:13.748Z,13.50
2022-11-24T12:03:02.268Z,13.10
2022-11-24T12:05:35.776Z,14.97
2022-11-24T12:08:21.681Z,13.23
2022-11-24T12:10:57.193Z,19.57
2022-11-24T12:14:01.247Z,10.63
2022-11-24T12:16:36.316Z,14.97
2022-11-24T12:19:20.284Z,14.97
2022-11-24T12:21:57.675Z,19.17
2022-11-24T12:24:41.391Z,16.80
2022-11-24T12:27:22.484Z,15.40
2022-11-24T12:30:06.774Z,13.83
2022-11-24T12:33:01.144Z,14.00
2022-11-24T12:35:35.434Z,13.57
2022-11-24T12:38:15.470Z,7.63
2022-11-24T12:41:39.571Z,11.93
2022-11-24T12:44:00.907Z,13.33
2022-11-24T12:46:38.310Z,15.70
2022-11-24T12:49:15.982Z,13.00
2022-11-24T12:51:45.757Z,15.10
2022-11-24T12:54:15.297Z,11.97
2022-11-24T12:56:49.665Z,9.47
2022-11-24T12:59:29.093Z,11.57
2022-11-24T13:02:10.801Z,16.27
2022-11-24T13:04:46.210Z,11.07
2022-11-24T13:07:17.966Z,17.80
2022-11-24T13:10:19.185Z,11.87
2022-11-24T13:12:59.078Z,14.13
2022-11-24T13:15:45.090Z,10.73
2022-11-24T13:18:45.200Z,9.87
2022-11-24T13:21:35.794Z,9.43
2022-11-24T13:24:07.154Z,12.57
2022-11-24T13:26:47.302Z,15.80
2022-11-24T13:29:33.162Z,13.73
2022-11-24T13:32:34.020Z,12.67
2022-11-24T13:35:13.433Z,10.47
2022-11-24T13:37:52.732Z,15.20
2022-11-24T13:40:54.227Z,12.57
2022-11-24T13:43:30.157Z,13.47
2022-11-24T13:45:59.301Z,9.73
2022-11-24T13:49:01.158Z,17.70
2022-11-24T13:51:29.189Z,14.33
2022-11-24T13:54:00.812Z,15.47
2022-11-24T13:56:31.029Z,14.23
2022-11-24T13:59:01.868Z,13.80
2022-11-24T14:01:33.186Z,13.70
2022-11-24T14:07:05.609Z,13.37
2022-11-24T14:09:38.419Z,14.27
2022-11-24T14:12:13.539Z,16.23
2022-11-24T14:14:42.310Z,14.60
2022-11-24T14:17:20.717Z,13.47
2022-11-24T14:19:49.827Z,12.97
2022-11-24T14:22:20.813Z,13.20
2022-11-24T14:24:54.218Z,14.43
2022-11-24T14:27:32.064Z,12.13
2022-11-24T14:30:01.648Z,14.13
2022-11-24T14:32:30.905Z,10.00
2022-11-24T14:34:58.821Z,14.30
2022-11-24T14:37:26.759Z,10.37
2022-11-24T14:39:54.514Z,12.63
2022-11-24T14:42:24.864Z,12.47
2022-11-24T14:44:56.470Z,11.40
2022-11-24T14:47:31.228Z,15.03
2022-11-24T14:50:12.459Z,18.67
2022-11-24T14:52:46.669Z,11.73
2022-11-24T14:55:29.133Z,12.00
2022-11-24T14:57:57.347Z,13.57
2022-11-24T15:00:31.078Z,13.60
2022-11-24T15:03:15.970Z,12.03
2022-11-24T15:05:56.870Z,16.87
2022-11-24T15:08:26.132Z,12.27
2022-11-24T15:10:59.618Z,12.73
2022-11-24T15:13:27.842Z,13.53
2022-11-24T15:16:02.901Z,15.10
2022-11-24T15:18:37.452Z,11.67
2022-11-24T15:21:06.882Z,12.77
2022-11-24T15:23:35.795Z,12.47
2022-11-24T15:26:30.779Z,14.97
2022-11-24T15:29:00.899Z,7.10
2022-11-24T15:31:28.755Z,14.70
2022-11-24T15:33:56.558Z,15.33
2022-11-24T15:36:25.748Z,15.83
2022-11-24T15:38:53.549Z,11.00
2022-11-24T15:41:23.075Z,13.30
2022-11-24T15:43:51.016Z,12.73
2022-11-24T15:46:18.863Z,15.13
2022-11-24T15:48:46.824Z,16.23
2022-11-24T15:51:15.723Z,14.63
2022-11-24T15:53:47.456Z,13.07
2022-11-24T15:56:22.254Z,15.70
2022-11-24T15:58:50.036Z,20.10
2022-11-24T16:01:17.940Z,16.57
2022-11-24T16:03:47.879Z,13.60
2022-11-24T16:06:24.140Z,15.70
2022-11-24T16:08:54.394Z,15.07
2022-11-24T16:11:22.467Z,14.80
2022-11-24T16:13:53.249Z,13.47
2022-11-24T16:16:22.513Z,18.00
2022-11-24T16:18:50.567Z,18.03
2022-11-24T16:21:18.445Z,10.33
2022-11-24T16:23:46.602Z,11.77
2022-11-24T16:26:15.801Z,15.60
2022-11-24T16:28:45.194Z,17.07
2022-11-24T16:31:15.566Z,12.47
2022-11-24T16:33:44.774Z,15.30
2022-11-24T16:36:12.759Z,18.87
2022-11-24T16:38:40.681Z,17.87
2022-11-24T16:41:10.317Z,16.13
2022-11-24T16:43:39.911Z,16.20
2022-11-24T16:46:18.588Z,12.90
2022-11-24T16:48:47.793Z,17.70
2022-11-24T16:51:16.069Z,11.53
2022-11-24T16:53:44.482Z,14.23
2022-11-24T16:56:13.167Z,14.60
2022-11-24T16:58:42.915Z,13.00
2022-11-24T17:01:12.858Z,13.67
2022-11-24T17:03:41.280Z,12.63
2022-11-24T17:06:11.250Z,11.23
2022-11-24T17:08:40.830Z,13.70
2022-11-24T17:11:09.525Z,15.67
2022-11-24T17:13:37.683Z,14.30
2022-11-24T17:16:09.039Z,15.70
2022-11-24T17:18:38.427Z,15.43
2022-11-24T17:21:10.667Z,11.70
2022-11-24T17:23:38.901Z,10.43
2022-11-24T17:26:08.258Z,15.60
2022-11-24T17:28:36.226Z,12.80
2022-11-24T17:31:09.059Z,15.33
2022-11-24T17:33:37.353Z,15.27
2022-11-24T17:36:05.980Z,11.13
2022-11-24T17:38:35.104Z,14.10
2022-11-24T17:41:02.990Z,13.00
2022-11-24T17:43:30.806Z,12.80
2022-11-24T17:46:00.832Z,11.10
2022-11-24T17:48:31.452Z,12.13
2022-11-24T17:51:03.538Z,19.50
2022-11-24T17:53:32.417Z,17.63
2022-11-24T17:56:01.382Z,19.47
2022-11-24T17:58:29.852Z,14.00
2022-11-24T18:00:58.376Z,17.03
2022-11-24T18:03:28.793Z,14.60
2022-11-24T18:05:58.318Z,12.67
2022-11-24T18:08:26.070Z,14.33
2022-11-24T18:10:53.877Z,15.50
2022-11-24T18:13:41.224Z,8.80
2022-11-24T18:16:10.967Z,14.10
2022-11-24T18:18:40.352Z,14.27
2022-11-24T18:21:14.570Z,13.53
2022-11-24T18:23:43.364Z,11.90
2022-11-24T18:26:14.726Z,13.10
2022-11-24T18:28:42.850Z,13.23
2022-11-24T18:31:13.763Z,13.57
2022-11-24T18:33:43.266Z,18.40
2022-11-24T18:36:14.824Z,15.03
2022-11-24T18:38:42.975Z,18.33
2022-11-24T18:41:13.053Z,10.50
2022-11-24T18:43:41.293Z,15.37
2022-11-24T18:46:12.441Z,14.20
2022-11-24T18:48:40.308Z,17.40
2022-11-24T18:51:08.583Z,15.50
2022-11-24T18:53:37.715Z,11.27
2022-11-24T18:56:06.893Z,14.83
2022-11-24T18:58:36.538Z,11.90
2022-11-24T19:01:08.667Z,9.93
2022-11-24T19:03:42.360Z,19.93
2022-11-24T19:06:15.924Z,16.50
2022-11-24T19:08:45.149Z,14.80
2022-11-24T19:11:18.357Z,15.77
2022-11-24T19:13:47.510Z,14.33
2022-11-24T19:16:15.637Z,11.07
2022-11-24T19:18:45.554Z,14.20
2022-11-24T19:21:17.048Z,15.70
2022-11-24T19:23:46.486Z,12.77
2022-11-24T19:26:14.277Z,12.10
2022-11-24T19:28:42.097Z,13.17
2022-11-24T19:31:12.552Z,14.10
2022-11-24T19:33:40.827Z,12.30
2022-11-24T19:36:11.934Z,13.63
2022-11-24T19:38:40.967Z,16.03
2022-11-24T19:41:12.027Z,13.13
2022-11-24T19:43:40.840Z,14.73
2022-11-24T19:46:10.257Z,12.87
2022-11-24T19:48:40.502Z,12.97
2022-11-24T19:51:11.029Z,8.23
2022-11-24T19:53:38.857Z,17.50
2022-11-24T19:56:07.867Z,12.90
2022-11-24T19:58:37.484Z,13.77
2022-11-24T20:01:08.933Z,15.10
2022-11-24T20:03:37.421Z,14.03
2022-11-24T20:06:05.983Z,16.00
2022-11-24T20:08:35.292Z,13.83
2022-11-24T20:11:04.694Z,16.20
2022-11-24T20:13:32.515Z,12.13
2022-11-24T20:16:05.222Z,11.60
2022-11-24T20:18:38.906Z,14.97
2022-11-24T20:21:13.310Z,15.27
2022-11-24T20:23:41.667Z,11.83
2022-11-24T20:26:12.003Z,12.20
2022-11-24T20:28:40.023Z,14.53
2022-11-24T20:31:12.820Z,11.00
2022-11-24T20:33:41.135Z,14.53
2022-11-24T20:36:10.756Z,13.63
2022-11-24T20:38:40.305Z,9.63
2022-11-24T20:41:10.217Z,12.20
2022-11-24T20:43:38.753Z,12.57
2022-11-24T20:46:09.848Z,12.77
2022-11-24T20:48:38.205Z,15.23
2022-11-24T20:51:07.317Z,13.90
2022-11-24T20:53:35.896Z,14.17
2022-11-24T20:56:06.244Z,12.43
2022-11-24T20:58:35.688Z,11.70
2022-11-24T21:01:09.891Z,11.77
2022-11-24T21:03:42.856Z,16.43
2022-11-24T21:06:11.661Z,17.97
2022-11-24T21:08:41.245Z,15.33
2022-11-24T21:11:11.319Z,15.37
2022-11-24T21:13:40.697Z,15.97
2022-11-24T21:16:17.773Z,14.87
2022-11-24T21:18:46.925Z,18.30
2022-11-24T21:21:15.566Z,17.00
2022-11-24T21:23:45.013Z,12.43
2022-11-24T21:26:16.901Z,21.33
2022-11-24T21:28:46.556Z,16.23
2022-11-24T21:31:17.796Z,12.70
2022-11-24T21:33:47.319Z,14.27
2022-11-24T21:36:17.638Z,14.60
2022-11-24T21:38:50.266Z,12.83
2022-11-24T21:41:18.216Z,13.70
2022-11-24T21:43:45.982Z,10.17
2022-11-24T21:46:14.526Z,11.07
2022-11-24T21:48:44.135Z,9.73
2022-11-24T21:51:14.077Z,16.97
2022-11-24T21:53:42.113Z,15.23
2022-11-24T21:56:12.991Z,12.23
2022-11-24T21:58:46.508Z,12.30
2022-11-24T22:01:15.596Z,12.97
2022-11-24T22:03:45.760Z,14.37
2022-11-24T22:06:14.253Z,13.63
2022-11-24T22:08:42.321Z,15.03
2022-11-24T22:11:13.217Z,15.30
2022-11-24T22:13:41.331Z,16.70
2022-11-24T22:16:10.989Z,12.80
2022-11-24T22:18:40.305Z,17.47
2022-11-24T22:21:12.210Z,13.23
2022-11-24T22:23:40.294Z,14.60
2022-11-24T22:26:12.321Z,12.10
2022-11-24T22:28:40.357Z,13.30
2022-11-24T22:31:10.529Z,14.77
2022-11-24T22:33:45.965Z,13.50
2022-11-24T22:36:16.109Z,11.77
2022-11-24T22:38:44.311Z,12.17
2022-11-24T22:41:14.241Z,10.63
2022-11-24T22:43:43.388Z,11.13
2022-11-24T22:46:13.846Z,14.40
2022-11-24T22:48:42.447Z,15.60
2022-11-24T22:51:12.706Z,14.43
2022-11-24T22:53:43.261Z,13.20
2022-11-24T22:56:12.283Z,13.20
2022-11-24T22:58:40.569Z,11.93
2022-11-24T23:01:10.959Z,16.13
2022-11-24T23:03:39.299Z,13.17
2022-11-24T23:06:09.292Z,18.07
2022-11-24T23:08:37.537Z,14.47
2022-11-24T23:11:08.287Z,17.33
2022-11-24T23:13:36.251Z,14.43
2022-11-24T23:16:05.860Z,15.50
2022-11-24T23:18:34.228Z,13.07
2022-11-24T23:21:06.887Z,16.03
2022-11-24T23:23:35.121Z,15.27
2022-11-24T23:26:04.087Z,18.07
2022-11-24T23:28:33.502Z,15.70
2022-11-24T23:31:02.578Z,11.40
2022-11-24T23:33:30.761Z,13.80
2022-11-24T23:36:01.966Z,14.50
2022-11-24T23:38:32.395Z,17.57
2022-11-24T23:41:01.016Z,14.93
2022-11-24T23:43:28.793Z,16.73
2022-11-24T23:46:02.581Z,16.73
2022-11-24T23:48:30.475Z,16.37
2022-11-24T23:50:58.484Z,17.30
2022-11-24T23:53:26.307Z,14.33
2022-11-24T23:55:55.225Z,12.43
2022-11-24T23:58:23.078Z,13.37
